Time;durP1;ratioP1;P1;durP2;ratioP2;P2;SDS_P1;SDS_P2;PMS_P1;PMS_P2;Temp;Humidity;BMP_temperature;BMP_pressure;BME280_temperature;BME280_humidity;BME280_pressure;Samples;Min_cycle;Max_cycle;Signal;HPM_P1;HPM_P2
2024/04/02 00:02:15;;;;;;;38.78;9.25;;;;;;;15.08;75.12;99235.03;1791876;80;21122;-76
2024/04/02 00:04:44;;;;;;;42.75;10.32;;;;;;;15.05;75.29;99225.89;1759405;80;21126;-76
2024/04/02 00:07:12;;;;;;;35.08;9.23;;;;;;;15.03;75.39;99221.17;1792044;80;21118;-75
2024/04/02 00:09:40;;;;;;;33.45;9.50;;;;;;;15.02;75.49;99216.74;1791923;79;21129;-75
2024/04/02 00:12:09;;;;;;;36.65;9.60;;;;;;;14.99;75.57;99218.09;1791839;80;21110;-77
2024/04/02 00:14:37;;;;;;;42.45;9.50;;;;;;;14.97;75.68;99213.92;1792021;79;21165;-76
2024/04/02 00:17:06;;;;;;;41.50;9.93;;;;;;;14.91;75.85;99209.68;1791925;80;21181;-76
2024/04/02 00:19:34;;;;;;;37.93;9.38;;;;;;;14.87;75.94;99215.42;1791868;80;21118;-74
2024/04/02 00:22:02;;;;;;;39.35;9.63;;;;;;;14.84;76.15;99213.17;1791792;80;21150;-76
2024/04/02 00:24:31;;;;;;;40.83;10.08;;;;;;;14.81;76.37;99218.36;1791981;80;21146;-76
2024/04/02 00:26:59;;;;;;;40.05;9.75;;;;;;;14.77;76.57;99215.28;1791810;79;21138;-76
2024/04/02 00:29:27;;;;;;;46.25;9.65;;;;;;;14.76;76.73;99210.85;1791902;80;21122;-76
2024/04/02 00:31:56;;;;;;;37.13;8.48;;;;;;;14.77;76.78;99206.17;1792206;80;21145;-77
2024/04/02 00:34:24;;;;;;;33.92;8.73;;;;;;;14.77;76.84;99204.79;1791864;80;21146;-77
2024/04/02 00:36:52;;;;;;;43.30;8.45;;;;;;;14.75;76.90;99202.83;1791984;79;21145;-75
2024/04/02 00:39:20;;;;;;;41.08;9.73;;;;;;;14.72;77.02;99204.17;1791695;80;21582;-77
2024/04/02 00:41:49;;;;;;;36.10;8.55;;;;;;;14.70;77.14;99196.70;1759336;80;21233;-77
2024/04/02 00:44:17;;;;;;;40.90;8.75;;;;;;;14.70;77.35;99189.81;1791899;80;21133;-75
2024/04/02 00:46:45;;;;;;;48.50;8.88;;;;;;;14.71;77.47;99191.47;1792038;80;21109;-77
2024/04/02 00:49:13;;;;;;;37.42;8.63;;;;;;;14.71;77.50;99196.98;1792022;80;21114;-74
2024/04/02 00:51:42;;;;;;;45.52;8.68;;;;;;;14.69;77.62;99195.03;1792074;80;21569;-76
2024/04/02 00:54:10;;;;;;;36.23;8.45;;;;;;;14.68;77.70;99197.50;1759757;80;21169;-76
2024/04/02 00:56:39;;;;;;;38.83;8.43;;;;;;;14.66;77.78;99194.16;1792092;80;21157;-76
2024/04/02 00:59:07;;;;;;;38.45;8.25;;;;;;;14.65;77.87;99188.91;1792013;80;21145;-75
2024/04/02 01:01:37;;;;;;;37.58;8.55;;;;;;;14.65;77.98;99185.60;1792145;80;21562;-76
2024/04/02 01:04:05;;;;;;;36.53;9.03;;;;;;;14.65;78.05;99186.14;1791804;80;21193;-77
2024/04/02 01:06:34;;;;;;;45.03;9.98;;;;;;;14.63;78.21;99180.05;1792062;80;21130;-77
2024/04/02 01:09:04;;;;;;;45.65;9.40;;;;;;;14.61;78.32;99180.30;1791828;80;21106;-76
2024/04/02 01:11:33;;;;;;;44.13;9.58;;;;;;;14.58;78.43;99181.64;1792072;80;21102;-76
2024/04/02 01:14:01;;;;;;;45.40;9.35;;;;;;;14.58;78.67;99180.81;1759436;80;21134;-75
2024/04/02 01:16:30;;;;;;;39.25;9.03;;;;;;;14.60;78.79;99173.13;1791898;80;21145;-75
2024/04/02 01:18:58;;;;;;;41.92;8.98;;;;;;;14.61;78.91;99173.41;1788733;79;21154;-75
2024/04/02 01:21:27;;;;;;;37.80;8.25;;;;;;;14.61;78.97;99166.52;1752627;80;21130;-76
2024/04/02 01:23:55;;;;;;;42.00;8.83;;;;;;;14.63;79.06;99171.78;1721327;83;21134;-76
2024/04/02 01:26:23;;;;;;;32.40;8.20;;;;;;;14.61;79.07;99163.77;1753011;82;21590;-76
2024/04/02 01:29:00;;;;;;;36.85;8.03;;;;;;;14.59;79.13;99163.19;1721611;83;21179;-73
2024/04/02 01:31:26;;;;;;;38.70;8.30;;;;;;;14.57;79.23;99155.17;1752619;82;21098;-75
2024/04/02 01:33:55;;;;;;;38.90;8.35;;;;;;;14.58;79.33;99156.84;1721323;83;21135;-74
2024/04/02 01:36:23;;;;;;;40.00;7.95;;;;;;;14.57;79.39;99151.58;1752718;82;21177;-75
2024/04/02 01:38:51;;;;;;;39.55;7.92;;;;;;;14.55;79.55;99159.27;1721651;83;21158;-75
2024/04/02 01:41:19;;;;;;;38.85;7.90;;;;;;;14.56;79.70;99151.29;1752826;82;21106;-76
2024/04/02 01:43:48;;;;;;;40.63;8.40;;;;;;;14.56;79.76;99155.42;1721055;83;21146;-76
2024/04/02 01:46:16;;;;;;;45.75;8.70;;;;;;;14.56;79.94;99150.75;1752699;82;21097;-75
2024/04/02 01:48:45;;;;;;;41.05;8.48;;;;;;;14.58;80.01;99139.47;1721389;83;21111;-77
2024/04/02 01:51:13;;;;;;;39.70;8.35;;;;;;;14.58;79.97;99122.38;1752617;82;21094;-74
2024/04/02 01:53:42;;;;;;;34.48;7.78;;;;;;;14.58;80.00;99121.00;1721049;83;21178;-75
2024/04/02 01:56:10;;;;;;;41.25;7.80;;;;;;;14.59;80.01;99116.33;1752855;82;21137;-73
2024/04/02 01:58:39;;;;;;;43.98;7.30;;;;;;;14.59;79.99;99120.46;1721310;83;21614;-76
2024/04/02 02:01:07;;;;;;;35.68;7.67;;;;;;;14.56;79.93;99121.80;1752662;82;21156;-76
2024/04/02 02:03:35;;;;;;;40.05;6.85;;;;;;;14.55;80.05;99133.92;1721351;83;21147;-76
2024/04/02 02:06:04;;;;;;;35.13;7.67;;;;;;;14.56;80.17;99130.61;1752747;82;21106;-75
2024/04/02 02:08:33;;;;;;;39.63;7.10;;;;;;;14.57;80.17;99119.34;1721453;83;21139;-76
2024/04/02 02:11:03;;;;;;;38.85;6.92;;;;;;;14.58;80.12;99115.49;1752691;82;21189;-77
2024/04/02 02:13:39;;;;;;;42.80;7.55;;;;;;;14.59;80.04;99106.13;1721268;83;21135;-76
2024/04/02 02:16:07;;;;;;;30.25;6.67;;;;;;;14.59;79.95;99105.30;1752650;82;21645;-76
2024/04/02 02:18:35;;;;;;;38.63;7.60;;;;;;;14.60;79.84;99097.32;1752752;82;21137;-75
2024/04/02 02:21:04;;;;;;;32.98;7.40;;;;;;;14.60;79.82;99101.45;1746783;82;21190;-74
2024/04/02 02:23:32;;;;;;;35.15;7.25;;;;;;;14.59;79.73;99100.63;1723922;83;21154;-76
2024/04/02 02:26:00;;;;;;;34.03;6.85;;;;;;;14.57;79.62;99089.56;1750336;82;21114;-77
2024/04/02 02:28:29;;;;;;;43.05;7.12;;;;;;;14.57;79.71;99084.05;1723882;83;21130;-75
2024/04/02 02:30:57;;;;;;;33.13;6.97;;;;;;;14.58;79.62;99079.66;1723401;82;21162;-76
2024/04/02 02:33:25;;;;;;;36.75;6.60;;;;;;;14.59;79.55;99077.73;1724074;83;21186;-75
2024/04/02 02:35:54;;;;;;;34.65;6.83;;;;;;;14.58;79.53;99076.07;1750328;82;21117;-77
2024/04/02 02:38:22;;;;;;;29.95;6.60;;;;;;;14.58;79.43;99087.92;1724066;83;21185;-76
2024/04/02 02:40:50;;;;;;;31.85;7.55;;;;;;;14.55;79.42;99093.12;1750461;82;21201;-76
2024/04/02 02:43:19;;;;;;;36.80;6.85;;;;;;;14.52;79.42;99093.63;1723984;83;21126;-76
2024/04/02 02:45:50;;;;;;;32.75;6.37;;;;;;;14.49;79.54;99091.38;1750392;82;21118;-76
2024/04/02 02:48:18;;;;;;;32.90;6.85;;;;;;;14.47;79.56;99093.02;1723821;83;21602;-76
2024/04/02 02:50:47;;;;;;;29.55;6.60;;;;;;;14.45;79.58;99092.44;1750488;82;21126;-76
2024/04/02 02:53:15;;;;;;;33.23;6.10;;;;;;;14.45;79.63;99087.47;1723740;83;21715;-76
2024/04/02 02:55:55;;;;;;;35.23;6.70;;;;;;;14.44;79.53;99082.50;1750471;82;21130;-75
2024/04/02 02:58:24;;;;;;;39.08;7.17;;;;;;;14.43;79.51;99085.52;1723767;83;21605;-76
2024/04/02 03:00:52;;;;;;;30.20;6.80;;;;;;;14.39;79.50;99092.59;1750465;82;21134;-75
2024/04/02 03:03:21;;;;;;;27.22;6.50;;;;;;;14.38;79.66;99094.52;1723826;83;21138;-76
2024/04/02 03:05:55;;;;;;;36.45;7.80;;;;;;;14.38;79.65;99095.89;1750311;82;21635;-76
2024/04/02 03:08:23;;;;;;;36.75;7.60;;;;;;;14.35;79.58;99087.30;1723919;83;21632;-76
2024/04/02 03:11:04;;;;;;;37.23;8.93;;;;;;;14.34;79.66;99082.88;1750281;82;21138;-76
2024/04/02 03:13:33;;;;;;;32.38;8.33;;;;;;;14.33;79.55;99080.66;1723996;83;21115;-75
2024/04/02 03:16:03;;;;;;;36.45;7.72;;;;;;;14.32;79.38;99074.86;1750242;82;21150;-76
2024/04/02 03:18:31;;;;;;;42.67;7.75;;;;;;;14.31;79.34;99072.36;1723786;83;21127;-76
2024/04/02 03:21:00;;;;;;;34.55;6.85;;;;;;;14.31;79.24;99071.82;1745494;82;21138;-76
2024/04/02 03:23:28;;;;;;;35.60;6.83;;;;;;;14.29;79.14;99067.08;1730825;83;21193;-73
2024/04/02 03:26:00;;;;;;;32.17;6.20;;;;;;;14.28;79.09;99070.38;1755347;82;21125;-76
2024/04/02 03:28:31;;;;;;;30.82;6.28;;;;;;;14.29;79.00;99062.94;1755463;82;21168;-75
2024/04/02 03:31:04;;;;;;;30.68;6.30;;;;;;;14.29;78.94;99062.94;1723960;83;21136;-75
2024/04/02 03:33:32;;;;;;;34.78;5.75;;;;;;;14.30;78.78;99071.50;1755470;82;21111;-76
2024/04/02 03:36:05;;;;;;;33.28;6.28;;;;;;;14.30;78.63;99067.36;1723818;83;21099;-75
2024/04/02 03:38:33;;;;;;;38.58;6.42;;;;;;;14.29;78.60;99069.29;1755316;82;21133;-77
2024/04/02 03:41:11;;;;;;;35.50;6.92;;;;;;;14.28;78.47;99059.36;1723759;83;21179;-75
2024/04/02 03:43:44;;;;;;;31.02;6.58;;;;;;;14.29;78.38;99060.19;1755301;82;21180;-76
2024/04/02 03:46:11;;;;;;;29.00;5.33;;;;;;;14.29;78.31;99058.27;1723629;83;21146;-75
2024/04/02 03:48:39;;;;;;;32.40;5.95;;;;;;;14.32;78.21;99059.72;1755484;82;21085;-76
2024/04/02 03:51:07;;;;;;;28.27;5.95;;;;;;;14.29;78.08;99054.68;1723823;83;21146;-75
2024/04/02 03:53:36;;;;;;;28.85;6.92;;;;;;;14.31;78.09;99055.29;1755215;82;21142;-75
2024/04/02 03:56:06;;;;;;;32.80;6.65;;;;;;;14.31;78.01;99051.16;1723792;83;21126;-76
2024/04/02 03:58:34;;;;;;;33.95;6.17;;;;;;;14.30;77.92;99048.08;1755308;82;21145;-74
2024/04/02 04:01:09;;;;;;;24.70;6.25;;;;;;;14.32;77.95;99043.18;1723856;83;21134;-75
2024/04/02 04:03:37;;;;;;;39.53;6.72;;;;;;;14.31;77.79;99030.49;1755472;82;21125;-76
2024/04/02 04:06:06;;;;;;;32.53;6.62;;;;;;;14.27;77.91;99031.52;1723654;83;21415;-76
2024/04/02 04:08:34;;;;;;;28.80;5.87;;;;;;;14.31;77.88;99030.49;1755282;82;21106;-76
2024/04/02 04:11:03;;;;;;;29.67;6.33;;;;;;;14.29;77.77;99022.45;1723879;83;21142;-77
2024/04/02 04:13:32;;;;;;;24.27;5.33;;;;;;;14.29;77.76;99021.07;1755351;82;21122;-76
2024/04/02 04:16:01;;;;;;;29.72;5.97;;;;;;;14.28;77.58;99011.14;1723806;83;21134;-74
2024/04/02 04:18:30;;;;;;;34.50;6.12;;;;;;;14.27;77.55;99001.76;1755311;82;21102;-75
2024/04/02 04:21:00;;;;;;;33.73;5.85;;;;;;;14.29;77.54;99007.30;1725176;83;21130;-75
2024/04/02 04:23:28;;;;;;;28.35;7.08;;;;;;;14.33;77.46;99004.89;1792026;80;21133;-76
2024/04/02 04:26:01;;;;;;;33.20;7.80;;;;;;;14.35;77.36;98997.75;1791984;80;21129;-76
2024/04/02 04:28:30;;;;;;;27.35;6.17;;;;;;;14.33;77.31;98988.91;1791891;80;21102;-77
2024/04/02 04:31:00;;;;;;;33.02;6.53;;;;;;;14.30;77.31;98984.71;1791941;80;21197;-75
2024/04/02 04:33:29;;;;;;;36.28;6.90;;;;;;;14.28;77.37;98978.08;1792058;80;21134;-76
2024/04/02 04:35:57;;;;;;;21.35;6.75;;;;;;;14.32;77.38;98977.60;1791995;80;21138;-76
2024/04/02 04:38:28;;;;;;;26.45;6.10;;;;;;;14.33;77.29;98969.08;1792138;80;21173;-76
2024/04/02 04:40:56;;;;;;;23.55;5.37;;;;;;;14.36;77.20;98972.70;1792431;79;21110;-76
2024/04/02 04:43:25;;;;;;;33.15;5.78;;;;;;;14.40;77.02;98964.75;1792204;80;21122;-75
2024/04/02 04:45:54;;;;;;;35.55;7.08;;;;;;;14.42;76.77;98961.19;1791879;80;21185;-75
2024/04/02 04:48:23;;;;;;;31.27;6.22;;;;;;;14.42;76.62;98958.44;1791903;80;21153;-75
2024/04/02 04:51:03;;;;;;;33.00;6.72;;;;;;;14.46;76.64;98956.86;1791943;79;21149;-74
2024/04/02 04:53:32;;;;;;;22.00;5.62;;;;;;;14.47;76.43;98949.71;1790309;80;21549;-76
2024/04/02 04:56:05;;;;;;;31.65;6.47;;;;;;;14.49;76.22;98936.50;1792046;79;21141;-76
2024/04/02 04:58:34;;;;;;;31.45;6.40;;;;;;;14.51;76.14;98938.45;1791869;79;21137;-73
2024/04/02 05:01:03;;;;;;;36.93;6.70;;;;;;;14.53;75.95;98934.06;1791953;79;21145;-76
2024/04/02 05:03:34;;;;;;;30.05;6.70;;;;;;;14.54;75.81;98937.11;1791945;80;21579;-76
2024/04/02 05:06:08;;;;;;;31.17;6.35;;;;;;;14.57;75.68;98932.45;1791880;80;21162;-76
2024/04/02 05:08:38;;;;;;;36.68;6.08;;;;;;;14.56;75.73;98930.78;1791624;80;21110;-77
2024/04/02 05:11:07;;;;;;;31.23;6.47;;;;;;;14.58;75.56;98934.95;1791987;80;22040;-75
2024/04/02 05:13:35;;;;;;;34.20;7.00;;;;;;;14.59;75.48;98931.64;1791771;80;21138;-78
2024/04/02 05:16:04;;;;;;;33.83;6.40;;;;;;;14.61;75.47;98936.90;1791910;80;21142;-77
2024/04/02 05:18:33;;;;;;;34.40;6.67;;;;;;;14.62;75.31;98928.37;1759743;80;21121;-77
2024/04/02 05:21:03;;;;;;;34.85;6.87;;;;;;;14.63;75.20;98924.52;1791797;79;21154;-75
2024/04/02 05:23:31;;;;;;;29.87;6.45;;;;;;;14.64;75.18;98922.59;1791991;80;21122;-76
2024/04/02 05:26:00;;;;;;;32.03;6.70;;;;;;;14.66;75.00;98917.11;1791881;80;21264;-76
2024/04/02 05:28:28;;;;;;;33.73;6.80;;;;;;;14.69;74.96;98919.34;1791901;79;21686;-77
2024/04/02 05:30:57;;;;;;;30.40;6.47;;;;;;;14.72;74.75;98916.06;1791744;79;21142;-76
2024/04/02 05:33:26;;;;;;;34.73;6.28;;;;;;;14.73;74.52;98919.11;1791756;80;21152;-76
2024/04/02 05:35:55;;;;;;;30.40;5.67;;;;;;;14.74;74.35;98922.70;1734806;80;21122;-77
2024/04/02 05:38:24;;;;;;;27.95;6.67;;;;;;;14.74;74.23;98914.42;1791861;80;21442;-78
2024/04/02 05:40:52;;;;;;;31.77;5.97;;;;;;;14.75;74.00;98918.84;1791629;80;21578;-76
2024/04/02 05:43:20;;;;;;;32.17;6.03;;;;;;;14.75;73.94;98925.73;1791986;80;21117;-76
2024/04/02 05:45:48;;;;;;;33.42;6.12;;;;;;;14.76;73.90;98921.34;1791859;80;21624;-75
2024/04/02 05:48:17;;;;;;;25.62;5.75;;;;;;;14.77;73.63;98922.17;1791854;80;21150;-75
2024/04/02 05:50:55;;;;;;;30.90;6.60;;;;;;;14.77;73.51;98908.39;1792026;80;21111;-76
2024/04/02 05:53:24;;;;;;;31.40;5.92;;;;;;;14.75;73.46;98899.00;1759382;80;21114;-77
2024/04/02 05:55:52;;;;;;;32.48;6.20;;;;;;;14.77;73.59;98898.19;1791611;80;21095;-77
2024/04/02 05:58:20;;;;;;;31.40;5.72;;;;;;;14.80;73.49;98882.50;1791626;80;21118;-77
2024/04/02 06:00:49;;;;;;;40.63;7.72;;;;;;;14.86;73.34;98877.86;1791828;80;21651;-75
2024/04/02 06:03:17;;;;;;;32.15;6.12;;;;;;;14.89;73.11;98864.38;1792072;79;21145;-76
2024/04/02 06:05:46;;;;;;;25.80;6.20;;;;;;;14.91;72.98;98871.84;1791965;80;21158;-77
2024/04/02 06:08:15;;;;;;;30.20;6.85;;;;;;;14.93;72.85;98870.75;1791983;80;21149;-77
2024/04/02 06:10:43;;;;;;;31.85;5.90;;;;;;;14.98;72.68;98879.09;1791985;80;21391;-77
2024/04/02 06:13:12;;;;;;;31.12;5.90;;;;;;;15.01;72.60;98871.67;1791885;79;21146;-76
2024/04/02 06:15:40;;;;;;;32.88;6.50;;;;;;;15.04;72.38;98862.32;1792015;80;21177;-77
2024/04/02 06:18:09;;;;;;;29.45;5.42;;;;;;;15.07;72.35;98857.66;1791898;80;21238;-77
2024/04/02 06:20:38;;;;;;;27.45;5.75;;;;;;;15.10;72.25;98852.98;1791809;80;21170;-76
2024/04/02 06:23:07;;;;;;;30.37;7.72;;;;;;;15.14;71.98;98846.39;1792113;79;21172;-76
2024/04/02 06:25:37;;;;;;;34.85;5.70;;;;;;;15.18;71.97;98844.77;1760051;80;21122;-77
2024/04/02 06:28:05;;;;;;;25.40;5.85;;;;;;;15.23;71.64;98843.41;1759557;80;21110;-76
2024/04/02 06:30:34;;;;;;;30.05;6.05;;;;;;;15.25;71.45;98835.70;1791916;80;21166;-76
2024/04/02 06:33:02;;;;;;;27.17;5.03;;;;;;;15.30;71.22;98837.66;1791914;79;21157;-78
2024/04/02 06:35:30;;;;;;;30.27;5.78;;;;;;;15.35;71.23;98836.31;1792129;80;21534;-76
2024/04/02 06:37:59;;;;;;;27.98;5.25;;;;;;;15.41;71.00;98840.77;1791932;80;21125;-76
2024/04/02 06:40:29;;;;;;;25.92;5.70;;;;;;;15.47;70.70;98851.56;1791834;79;21118;-77
2024/04/02 06:42:57;;;;;;;29.37;5.75;;;;;;;15.53;70.50;98855.19;1792142;80;21095;-77
2024/04/02 06:45:27;;;;;;;29.82;5.92;;;;;;;15.55;70.31;98846.91;1791944;80;21141;-76
2024/04/02 06:47:56;;;;;;;127.65;73.07;;;;;;;15.59;70.19;98839.51;1792002;79;21153;-76
2024/04/02 06:50:24;;;;;;;31.05;8.55;;;;;;;15.64;70.11;98827.14;1791742;80;21147;-77
2024/04/02 06:52:52;;;;;;;33.65;6.25;;;;;;;15.71;69.97;98825.80;1791765;80;21160;-77
2024/04/02 06:55:21;;;;;;;39.20;6.00;;;;;;;15.78;69.76;98818.64;1791854;79;21157;-77
2024/04/02 06:57:49;;;;;;;32.40;5.75;;;;;;;15.85;69.40;98810.94;1792045;80;21133;-77
2024/04/02 07:00:17;;;;;;;28.32;5.87;;;;;;;15.94;69.11;98805.72;1791924;80;21130;-77
2024/04/02 07:02:46;;;;;;;34.73;6.15;;;;;;;16.00;68.87;98801.31;1791831;79;21118;-77
2024/04/02 07:05:15;;;;;;;27.77;5.90;;;;;;;16.05;68.68;98794.97;1791828;80;21122;-77
2024/04/02 07:07:43;;;;;;;29.82;6.50;;;;;;;16.11;68.49;98792.49;1791877;80;21114;-75
2024/04/02 07:10:12;;;;;;;32.63;6.65;;;;;;;16.18;68.26;98782.84;1791763;79;21122;-76
2024/04/02 07:12:41;;;;;;;28.38;6.78;;;;;;;16.26;68.01;98786.20;1791836;79;21114;-76
2024/04/02 07:15:09;;;;;;;36.10;6.40;;;;;;;16.34;67.75;98788.42;1791872;79;21165;-77
2024/04/02 07:17:38;;;;;;;37.75;6.30;;;;;;;16.42;67.50;98780.96;1791964;80;21111;-77
2024/04/02 07:20:07;;;;;;;27.35;6.12;;;;;;;16.48;67.30;98777.09;1791944;80;21577;-77
2024/04/02 07:22:36;;;;;;;35.13;6.12;;;;;;;16.54;66.92;98774.61;1791838;80;21538;-77
2024/04/02 07:25:05;;;;;;;35.08;6.35;;;;;;;16.60;66.38;98769.35;1792129;79;21161;-77
2024/04/02 07:27:34;;;;;;;32.38;6.22;;;;;;;16.62;66.26;98764.38;1791970;79;21125;-77
2024/04/02 07:30:03;;;;;;;33.35;6.97;;;;;;;16.67;66.25;98758.87;1791843;79;21110;-77
2024/04/02 07:32:32;;;;;;;35.88;5.47;;;;;;;16.73;65.79;98761.08;1791874;80;21592;-77
2024/04/02 07:35:01;;;;;;;29.77;5.28;;;;;;;16.79;65.40;98758.59;1792053;80;21145;-77
2024/04/02 07:37:30;;;;;;;31.27;5.85;;;;;;;16.85;65.06;98756.09;1792206;79;21557;-77
2024/04/02 07:39:58;;;;;;;40.08;5.95;;;;;;;16.95;64.79;98752.50;1791890;79;21197;-78
2024/04/02 07:42:27;;;;;;;31.12;6.17;;;;;;;17.01;64.49;98750.83;1791885;80;21114;-78
2024/04/02 07:44:55;;;;;;;34.80;6.15;;;;;;;17.08;64.34;98741.69;1792161;79;21224;-76
2024/04/02 07:47:24;;;;;;;34.15;5.97;;;;;;;17.19;63.87;98734.73;1791924;79;21090;-77
2024/04/02 07:49:52;;;;;;;31.33;6.00;;;;;;;17.28;63.34;98732.48;1756931;81;21156;-77
2024/04/02 07:52:21;;;;;;;34.88;6.08;;;;;;;17.35;63.02;98728.86;1791805;80;21561;-76
2024/04/02 07:54:49;;;;;;;28.10;5.95;;;;;;;17.46;62.72;98719.13;1791934;80;21185;-78
2024/04/02 07:57:21;;;;;;;27.75;6.17;;;;;;;17.62;62.41;98708.28;1790195;79;21185;-78
2024/04/02 07:59:50;;;;;;;39.78;6.72;;;;;;;17.84;61.37;98699.04;1794614;78;21149;-79
2024/04/02 08:02:21;;;;;;;31.90;6.05;;;;;;;18.21;60.90;98688.83;1805703;79;21223;-75
2024/04/02 08:04:56;;;;;;;36.25;6.70;;;;;;;18.63;60.15;98679.05;1749988;80;21106;-74
2024/04/02 08:07:25;;;;;;;32.70;6.75;;;;;;;19.07;58.63;98673.34;1788362;80;21122;-77
2024/04/02 08:09:54;;;;;;;38.50;6.78;;;;;;;19.43;57.17;98664.56;1786538;80;21699;-76
2024/04/02 08:12:22;;;;;;;33.48;6.72;;;;;;;19.79;56.21;98664.95;1786713;80;21680;-77
2024/04/02 08:14:51;;;;;;;36.20;6.83;;;;;;;20.12;55.11;98664.44;1756753;80;21557;-78
2024/04/02 08:17:20;;;;;;;39.70;8.60;;;;;;;20.44;53.88;98657.55;1806257;79;21623;-78
2024/04/02 08:19:48;;;;;;;33.00;7.08;;;;;;;20.73;52.94;98650.91;1808453;79;21147;-77
2024/04/02 08:22:18;;;;;;;38.60;8.63;;;;;;;20.98;51.12;98656.02;1809840;79;21127;-76
2024/04/02 08:24:48;;;;;;;37.55;7.22;;;;;;;21.17;51.14;98649.78;1811664;79;21107;-76
2024/04/02 08:27:17;;;;;;;35.10;7.67;;;;;;;21.43;50.69;98640.91;1811736;79;21554;-77
2024/04/02 08:29:45;;;;;;;41.42;7.90;;;;;;;21.68;49.04;98630.63;1811466;79;21555;-78
2024/04/02 08:32:14;;;;;;;50.80;7.90;;;;;;;21.88;48.74;98634.07;1811590;79;21091;-78
2024/04/02 08:34:42;;;;;;;37.33;7.20;;;;;;;22.10;47.73;98624.36;1789743;80;21118;-79
2024/04/02 08:37:11;;;;;;;37.58;7.50;;;;;;;22.26;47.36;98625.66;1761613;80;21622;-78
2024/04/02 08:39:40;;;;;;;40.92;7.15;;;;;;;22.48;47.09;98618.40;1789961;80;21114;-77
2024/04/02 08:42:09;;;;;;;36.93;7.42;;;;;;;22.72;46.04;98616.06;1789925;80;21159;-78
2024/04/02 08:44:41;;;;;;;36.00;7.37;;;;;;;22.92;45.18;98618.35;1787317;80;21608;-78
2024/04/02 08:47:09;;;;;;;38.05;7.58;;;;;;;23.08;44.80;98613.16;1789875;80;21205;-76
2024/04/02 08:49:37;;;;;;;41.73;7.05;;;;;;;23.26;44.55;98612.63;1789874;80;21162;-77
2024/04/02 08:52:07;;;;;;;38.38;6.80;;;;;;;23.42;43.98;98605.46;1789985;80;21189;-77
2024/04/02 08:54:35;;;;;;;40.78;7.80;;;;;;;23.52;43.29;98607.13;1789817;80;21126;-77
2024/04/02 08:57:05;;;;;;;38.95;7.28;;;;;;;23.47;43.37;98611.47;1789713;80;21656;-77
2024/04/02 08:59:33;;;;;;;42.20;7.72;;;;;;;23.38;43.30;98608.05;1789846;80;21142;-76
2024/04/02 09:02:03;;;;;;;34.78;7.40;;;;;;;23.31;43.38;98592.91;1789785;80;21154;-77
2024/04/02 09:04:32;;;;;;;38.50;7.10;;;;;;;23.25;43.66;98594.22;1789896;80;21181;-77
2024/04/02 09:07:01;;;;;;;44.25;7.50;;;;;;;23.22;43.22;98582.30;1792842;80;21546;-76
2024/04/02 09:09:30;;;;;;;45.15;7.80;;;;;;;23.04;43.12;98573.87;1789707;80;21639;-76
2024/04/02 09:11:59;;;;;;;46.13;8.10;;;;;;;22.90;43.32;98575.14;1789740;80;21114;-75
2024/04/02 09:14:28;;;;;;;46.05;9.38;;;;;;;22.78;43.72;98565.38;1737507;80;21648;-76
2024/04/02 09:16:57;;;;;;;51.25;7.97;;;;;;;22.75;43.97;98552.59;1761506;80;21161;-76
2024/04/02 09:19:26;;;;;;;40.48;6.95;;;;;;;22.75;43.64;98549.80;1761730;80;21106;-76
2024/04/02 09:21:55;;;;;;;50.00;8.60;;;;;;;22.70;43.16;98545.77;1785526;79;21606;-77
2024/04/02 09:24:23;;;;;;;43.40;7.40;;;;;;;22.64;43.60;98543.69;1772773;81;21166;-76
2024/04/02 09:26:52;;;;;;;41.58;7.25;;;;;;;22.61;43.77;98540.14;1747103;81;21115;-75
2024/04/02 09:29:21;;;;;;;41.90;7.35;;;;;;;22.52;43.53;98539.86;1772616;81;21563;-74
2024/04/02 09:31:49;;;;;;;49.42;8.55;;;;;;;22.45;43.93;98541.72;1772803;81;21659;-75
2024/04/02 09:34:20;;;;;;;52.30;7.25;;;;;;;22.41;43.86;98526.19;1772891;81;21135;-77
2024/04/02 09:36:55;;;;;;;38.48;7.28;;;;;;;22.38;43.81;98521.25;1742602;82;21170;-76
2024/04/02 09:39:25;;;;;;;49.73;7.75;;;;;;;22.36;44.04;98516.56;1717861;82;21170;-76
2024/04/02 09:41:54;;;;;;;54.85;7.30;;;;;;;22.39;43.80;98502.54;1742221;82;21091;-77
2024/04/02 09:44:24;;;;;;;56.85;7.28;;;;;;;22.35;43.88;98493.17;1741177;82;21601;-74
2024/04/02 09:46:52;;;;;;;45.03;7.45;;;;;;;22.36;43.68;98478.89;1742112;82;21150;-75
2024/04/02 09:49:21;;;;;;;39.27;7.33;;;;;;;22.33;43.36;98484.30;1742219;82;21118;-75
2024/04/02 09:51:49;;;;;;;44.63;7.40;;;;;;;22.26;43.81;98477.78;1742273;82;21179;-73
2024/04/02 09:54:18;;;;;;;41.68;7.30;;;;;;;22.28;43.94;98481.08;1742122;82;21150;-76
2024/04/02 09:56:46;;;;;;;51.63;7.35;;;;;;;22.31;44.03;98479.03;1742240;82;21095;-75
2024/04/02 09:59:16;;;;;;;46.37;7.45;;;;;;;22.36;43.85;98477.50;1742266;82;21636;-75
2024/04/02 10:01:44;;;;;;;42.70;7.03;;;;;;;22.37;43.74;98465.19;1742188;82;21146;-74
2024/04/02 10:04:15;;;;;;;42.35;7.20;;;;;;;22.41;43.94;98462.58;1741983;82;21123;-76
2024/04/02 10:06:43;;;;;;;38.15;6.72;;;;;;;22.40;43.56;98450.59;1742724;82;21166;-76
2024/04/02 10:09:15;;;;;;;41.02;7.00;;;;;;;22.38;43.85;98440.90;1741960;82;21190;-76
2024/04/02 10:11:46;;;;;;;43.48;7.70;;;;;;;22.42;43.87;98437.14;1720357;82;21162;-75
2024/04/02 10:14:16;;;;;;;46.88;8.13;;;;;;;22.48;43.62;98443.97;1744877;82;21127;-75
2024/04/02 10:16:47;;;;;;;47.73;7.40;;;;;;;22.50;43.16;98450.05;1744868;82;21154;-77
2024/04/02 10:19:19;;;;;;;53.87;7.42;;;;;;;22.48;43.02;98443.97;1745034;82;21142;-76
2024/04/02 10:21:47;;;;;;;43.73;7.25;;;;;;;22.49;42.55;98427.47;1746660;81;21182;-76
2024/04/02 10:24:24;;;;;;;58.33;21.82;;;;;;;22.51;42.51;98431.58;1776661;81;21106;-77
2024/04/02 10:26:56;;;;;;;45.23;7.67;;;;;;;22.54;42.41;98437.91;1776734;80;21134;-76
2024/04/02 10:29:33;;;;;;;46.25;7.50;;;;;;;22.58;41.42;98429.14;1748381;81;21675;-76
2024/04/02 10:32:04;;;;;;;39.92;7.37;;;;;;;22.63;41.46;98433.17;1775839;81;21618;-76
2024/04/02 10:34:34;;;;;;;48.20;7.47;;;;;;;22.65;40.76;98425.87;1724425;81;21640;-76
2024/04/02 10:37:02;;;;;;;48.33;7.35;;;;;;;22.68;40.88;98416.27;1697031;81;21114;-75
2024/04/02 10:39:33;;;;;;;50.12;7.62;;;;;;;22.70;41.02;98420.95;1776233;81;21122;-75
2024/04/02 10:42:03;;;;;;;33.98;7.72;;;;;;;22.70;40.62;98415.37;1749122;81;21227;-75
2024/04/02 10:44:32;;;;;;;41.88;8.33;;;;;;;22.70;40.47;98413.15;1776345;81;21534;-75
2024/04/02 10:47:02;;;;;;;51.53;7.72;;;;;;;22.70;40.68;98410.36;1776169;81;21111;-75
2024/04/02 10:49:30;;;;;;;51.28;7.53;;;;;;;22.75;40.93;98419.41;1776149;81;21178;-75
2024/04/02 10:52:06;;;;;;;35.88;7.58;;;;;;;22.79;40.67;98412.62;1776765;80;21583;-78
2024/04/02 10:54:35;;;;;;;44.85;6.97;;;;;;;22.80;40.87;98412.90;1776425;80;21106;-76
2024/04/02 10:57:06;;;;;;;37.70;7.08;;;;;;;22.85;40.36;98411.92;1682629;84;21190;-74
2024/04/02 10:59:39;;;;;;;43.13;7.12;;;;;;;22.86;40.43;98399.03;1719235;83;21636;-74
2024/04/02 11:02:11;;;;;;;42.93;7.40;;;;;;;22.89;40.61;98398.95;1706045;83;21179;-75
2024/04/02 11:04:39;;;;;;;41.37;7.05;;;;;;;22.89;40.64;98391.39;1690975;84;21585;-74
2024/04/02 11:07:14;;;;;;;35.23;7.17;;;;;;;22.92;39.95;98380.14;1738453;82;21671;-75
2024/04/02 11:09:43;;;;;;;42.15;7.20;;;;;;;22.93;39.85;98372.83;1745052;82;21570;-76
2024/04/02 11:12:12;;;;;;;46.42;7.65;;;;;;;22.92;40.05;98367.57;1745246;82;21574;-75
2024/04/02 11:14:40;;;;;;;43.35;7.65;;;;;;;22.91;39.89;98354.19;1744834;81;21123;-75
2024/04/02 11:17:09;;;;;;;45.55;7.47;;;;;;;22.91;39.96;98361.16;1716011;82;21226;-75
2024/04/02 11:19:38;;;;;;;47.98;7.90;;;;;;;22.90;40.09;98360.92;1745055;81;21158;-76
2024/04/02 11:25:03;;;;;;;41.53;7.22;;;;;;;22.96;39.82;98355.41;1747205;82;21197;-76
2024/04/02 11:27:35;;;;;;;40.05;7.42;;;;;;;23.00;39.86;98343.83;1722001;82;21142;-78
2024/04/02 11:30:01;;;;;;;45.08;7.55;;;;;;;23.04;39.91;98342.02;1747743;82;21212;-76
2024/04/02 11:32:30;;;;;;;45.15;7.67;;;;;;;23.06;39.85;98331.91;1748082;82;21601;-75
2024/04/02 11:35:07;;;;;;;35.75;7.53;;;;;;;23.07;39.49;98330.19;1720953;82;21122;-76
2024/04/02 11:37:37;;;;;;;45.45;7.78;;;;;;;23.12;39.71;98324.19;1747947;82;21016;-77